sensor_id;sensor_type;location;lat;lon;timestamp;pressure;altitude;pressure_sealevel;temperature;humidity
11856;BME280;5987;53.140;8.904;2023-02-14T00:00:04;103721.13;;;3.58;100.00
11856;BME280;5987;53.140;8.904;2023-02-14T00:03:10;103717.72;;;3.59;100.00
11856;BME280;5987;53.140;8.904;2023-02-14T00:06:15;103722.88;;;3.58;100.00
11856;BME280;5987;53.140;8.904;2023-02-14T00:09:19;103722.09;;;3.60;100.00
11856;BME280;5987;53.140;8.904;2023-02-14T00:12:23;103715.38;;;3.66;100.00
11856;BME280;5987;53.140;8.904;2023-02-14T00:15:27;103724.94;;;3.67;100.00
11856;BME280;5987;53.140;8.904;2023-02-14T00:18:31;103713.81;;;3.71;100.00
11856;BME280;5987;53.140;8.904;2023-02-14T00:21:52;103713.81;;;3.71;100.00
11856;BME280;5987;53.140;8.904;2023-02-14T00:24:56;103715.44;;;3.67;100.00
11856;BME280;5987;53.140;8.904;2023-02-14T00:28:00;103713.81;;;3.71;100.00
11856;BME280;5987;53.140;8.904;2023-02-14T00:31:04;103720.91;;;3.75;100.00
11856;BME280;5987;53.140;8.904;2023-02-14T00:34:10;103713.19;;;3.76;100.00
11856;BME280;5987;53.140;8.904;2023-02-14T00:37:14;103710.81;;;3.83;100.00
11856;BME280;5987;53.140;8.904;2023-02-14T00:40:18;103713.44;;;3.83;100.00
11856;BME280;5987;53.140;8.904;2023-02-14T00:43:21;103709.22;;;3.86;100.00
11856;BME280;5987;53.140;8.904;2023-02-14T00:46:26;103711.91;;;3.89;100.00
11856;BME280;5987;53.140;8.904;2023-02-14T00:49:31;103707.44;;;3.85;100.00
11856;BME280;5987;53.140;8.904;2023-02-14T00:52:35;103708.44;;;3.89;100.00
11856;BME280;5987;53.140;8.904;2023-02-14T00:55:39;103712.53;;;3.82;100.00
11856;BME280;5987;53.140;8.904;2023-02-14T00:58:44;103708.28;;;3.84;100.00
11856;BME280;5987;53.140;8.904;2023-02-14T01:01:48;103712.53;;;3.82;100.00
11856;BME280;5987;53.140;8.904;2023-02-14T01:04:53;103710.75;;;3.81;100.00
11856;BME280;5987;53.140;8.904;2023-02-14T01:07:57;103712.63;;;3.85;100.00
11856;BME280;5987;53.140;8.904;2023-02-14T01:11:08;103704.63;;;3.79;100.00
11856;BME280;5987;53.140;8.904;2023-02-14T01:14:12;103704.63;;;3.79;100.00
11856;BME280;5987;53.140;8.904;2023-02-14T01:17:15;103700.13;;;3.75;100.00
11856;BME280;5987;53.140;8.904;2023-02-14T01:20:21;103700.78;;;3.69;100.00
11856;BME280;5987;53.140;8.904;2023-02-14T01:23:25;103690.34;;;3.68;100.00
11856;BME280;5987;53.140;8.904;2023-02-14T01:26:29;103695.63;;;3.71;100.00
11856;BME280;5987;53.140;8.904;2023-02-14T01:29:33;103700.41;;;3.60;100.00
11856;BME280;5987;53.140;8.904;2023-02-14T01:32:37;103696.13;;;3.60;100.00
11856;BME280;5987;53.140;8.904;2023-02-14T01:35:42;103687.38;;;3.58;100.00
11856;BME280;5987;53.140;8.904;2023-02-14T01:38:49;103684.59;;;3.54;100.00
11856;BME280;5987;53.140;8.904;2023-02-14T01:41:53;103686.53;;;3.59;100.00
11856;BME280;5987;53.140;8.904;2023-02-14T01:45:02;103690.22;;;3.42;100.00
11856;BME280;5987;53.140;8.904;2023-02-14T01:48:08;103689.44;;;3.44;100.00
11856;BME280;5987;53.140;8.904;2023-02-14T01:51:19;103687.25;;;3.33;100.00
11856;BME280;5987;53.140;8.904;2023-02-14T01:54:26;103688.28;;;3.36;100.00
11856;BME280;5987;53.140;8.904;2023-02-14T01:57:38;103687.63;;;3.42;100.00
11856;BME280;5987;53.140;8.904;2023-02-14T02:00:45;103684.06;;;3.40;100.00
11856;BME280;5987;53.140;8.904;2023-02-14T02:04:05;103687.56;;;3.40;100.00
11856;BME280;5987;53.140;8.904;2023-02-14T02:07:19;103677.19;;;3.40;100.00
11856;BME280;5987;53.140;8.904;2023-02-14T02:10:34;103679.56;;;3.36;100.00
11856;BME280;5987;53.140;8.904;2023-02-14T02:13:56;103673.50;;;3.35;100.00
11856;BME280;5987;53.140;8.904;2023-02-14T02:17:17;103674.25;;;3.33;100.00
11856;BME280;5987;53.140;8.904;2023-02-14T02:24:37;103667.81;;;3.23;100.00
11856;BME280;5987;53.140;8.904;2023-02-14T02:28:24;103660.66;;;3.17;100.00
11856;BME280;5987;53.140;8.904;2023-02-14T02:32:10;103664.94;;;3.15;100.00
11856;BME280;5987;53.140;8.904;2023-02-14T02:35:54;103671.88;;;3.16;100.00
11856;BME280;5987;53.140;8.904;2023-02-14T02:39:15;103662.19;;;3.12;100.00
11856;BME280;5987;53.140;8.904;2023-02-14T02:42:33;103664.56;;;3.06;100.00
11856;BME280;5987;53.140;8.904;2023-02-14T02:45:48;103656.53;;;3.00;100.00
11856;BME280;5987;53.140;8.904;2023-02-14T02:49:22;103659.81;;;2.96;100.00
11856;BME280;5987;53.140;8.904;2023-02-14T02:52:54;103660.88;;;2.80;100.00
11856;BME280;5987;53.140;8.904;2023-02-14T02:56:09;103668.47;;;2.75;100.00
11856;BME280;5987;53.140;8.904;2023-02-14T02:59:39;103657.88;;;2.69;100.00
11856;BME280;5987;53.140;8.904;2023-02-14T03:02:49;103659.66;;;2.50;100.00
11856;BME280;5987;53.140;8.904;2023-02-14T03:06:21;103652.16;;;2.56;100.00
11856;BME280;5987;53.140;8.904;2023-02-14T03:09:51;103640.31;;;2.42;100.00
11856;BME280;5987;53.140;8.904;2023-02-14T03:13:33;103651.63;;;2.44;100.00
11856;BME280;5987;53.140;8.904;2023-02-14T03:16:53;103643.28;;;2.51;100.00
11856;BME280;5987;53.140;8.904;2023-02-14T03:20:07;103646.84;;;2.53;100.00
11856;BME280;5987;53.140;8.904;2023-02-14T03:23:23;103642.41;;;2.51;100.00
11856;BME280;5987;53.140;8.904;2023-02-14T03:26:38;103645.06;;;2.52;100.00
11856;BME280;5987;53.140;8.904;2023-02-14T03:29:56;103641.72;;;2.55;100.00
11856;BME280;5987;53.140;8.904;2023-02-14T03:33:12;103634.28;;;2.43;100.00
11856;BME280;5987;53.140;8.904;2023-02-14T03:36:23;103637.97;;;2.48;100.00
11856;BME280;5987;53.140;8.904;2023-02-14T03:39:38;103630.75;;;2.41;100.00
11856;BME280;5987;53.140;8.904;2023-02-14T03:42:51;103630.88;;;2.44;100.00
11856;BME280;5987;53.140;8.904;2023-02-14T03:46:06;103628.22;;;2.43;100.00
11856;BME280;5987;53.140;8.904;2023-02-14T03:49:17;103624.75;;;2.42;100.00
11856;BME280;5987;53.140;8.904;2023-02-14T03:52:25;103621.09;;;2.37;100.00
11856;BME280;5987;53.140;8.904;2023-02-14T03:55:36;103617.53;;;2.35;100.00
11856;BME280;5987;53.140;8.904;2023-02-14T03:58:47;103618.16;;;2.29;100.00
11856;BME280;5987;53.140;8.904;2023-02-14T04:02:01;103615.00;;;2.15;100.00
11856;BME280;5987;53.140;8.904;2023-02-14T04:05:14;103612.00;;;2.06;100.00
11856;BME280;5987;53.140;8.904;2023-02-14T04:08:27;103616.06;;;2.01;100.00
11856;BME280;5987;53.140;8.904;2023-02-14T04:11:32;103615.00;;;1.96;100.00
11856;BME280;5987;53.140;8.904;2023-02-14T04:14:38;103612.34;;;1.94;100.00
11856;BME280;5987;53.140;8.904;2023-02-14T04:17:42;103612.66;;;2.02;100.00
11856;BME280;5987;53.140;8.904;2023-02-14T04:21:04;103609.28;;;2.03;100.00
11856;BME280;5987;53.140;8.904;2023-02-14T04:24:08;103606.44;;;1.98;100.00
11856;BME280;5987;53.140;8.904;2023-02-14T04:27:12;103601.22;;;1.97;100.00
11856;BME280;5987;53.140;8.904;2023-02-14T04:30:18;103605.31;;;1.92;100.00
11856;BME280;5987;53.140;8.904;2023-02-14T04:33:22;103597.44;;;1.88;100.00
11856;BME280;5987;53.140;8.904;2023-02-14T04:36:26;103599.66;;;1.81;100.00
11856;BME280;5987;53.140;8.904;2023-02-14T04:39:30;103596.66;;;1.71;100.00
11856;BME280;5987;53.140;8.904;2023-02-14T04:42:34;103594.66;;;1.66;100.00
11856;BME280;5987;53.140;8.904;2023-02-14T04:45:39;103600.41;;;1.59;100.00
11856;BME280;5987;53.140;8.904;2023-02-14T04:48:43;103594.94;;;1.52;100.00
11856;BME280;5987;53.140;8.904;2023-02-14T04:51:46;103592.50;;;1.56;100.00
11856;BME280;5987;53.140;8.904;2023-02-14T04:54:50;103589.69;;;1.51;100.00
11856;BME280;5987;53.140;8.904;2023-02-14T04:57:54;103583.03;;;1.36;100.00
11856;BME280;5987;53.140;8.904;2023-02-14T05:00:59;103575.38;;;1.40;100.00
11856;BME280;5987;53.140;8.904;2023-02-14T05:04:04;103572.53;;;1.53;100.00
11856;BME280;5987;53.140;8.904;2023-02-14T05:07:11;103571.03;;;1.39;100.00
11856;BME280;5987;53.140;8.904;2023-02-14T05:10:20;103582.78;;;1.32;100.00
11856;BME280;5987;53.140;8.904;2023-02-14T05:13:32;103583.34;;;1.44;100.00
11856;BME280;5987;53.140;8.904;2023-02-14T05:16:42;103575.03;;;1.51;100.00
11856;BME280;5987;53.140;8.904;2023-02-14T05:19:46;103572.53;;;1.53;100.00
11856;BME280;5987;53.140;8.904;2023-02-14T05:22:49;103569.13;;;1.54;100.00
11856;BME280;5987;53.140;8.904;2023-02-14T05:25:53;103567.94;;;1.47;100.00
11856;BME280;5987;53.140;8.904;2023-02-14T05:28:57;103568.44;;;1.39;100.00
11856;BME280;5987;53.140;8.904;2023-02-14T05:32:03;103569.19;;;1.18;100.00
11856;BME280;5987;53.140;8.904;2023-02-14T05:35:07;103564.34;;;1.06;100.00
11856;BME280;5987;53.140;8.904;2023-02-14T05:38:15;103564.41;;;1.08;100.00
11856;BME280;5987;53.140;8.904;2023-02-14T05:41:25;103565.28;;;1.08;100.00
11856;BME280;5987;53.140;8.904;2023-02-14T05:44:37;103562.16;;;0.96;100.00
11856;BME280;5987;53.140;8.904;2023-02-14T05:47:49;103562.97;;;0.95;100.00
11856;BME280;5987;53.140;8.904;2023-02-14T05:50:53;103565.47;;;0.93;100.00
11856;BME280;5987;53.140;8.904;2023-02-14T05:54:01;103560.38;;;0.77;100.00
11856;BME280;5987;53.140;8.904;2023-02-14T05:57:17;103554.03;;;0.70;100.00
11856;BME280;5987;53.140;8.904;2023-02-14T06:00:29;103566.81;;;0.67;100.00
11856;BME280;5987;53.140;8.904;2023-02-14T06:03:34;103573.75;;;0.68;100.00
11856;BME280;5987;53.140;8.904;2023-02-14T06:06:38;103578.88;;;0.84;100.00
11856;BME280;5987;53.140;8.904;2023-02-14T06:09:42;103574.66;;;0.87;100.00
11856;BME280;5987;53.140;8.904;2023-02-14T06:12:49;103576.63;;;0.92;100.00
11856;BME280;5987;53.140;8.904;2023-02-14T06:15:53;103577.28;;;1.06;100.00
11856;BME280;5987;53.140;8.904;2023-02-14T06:18:58;103573.53;;;0.99;100.00
11856;BME280;5987;53.140;8.904;2023-02-14T06:22:03;103589.50;;;0.91;100.00
11856;BME280;5987;53.140;8.904;2023-02-14T06:25:07;103589.50;;;0.91;100.00
11856;BME280;5987;53.140;8.904;2023-02-14T06:28:10;103584.47;;;0.94;100.00
11856;BME280;5987;53.140;8.904;2023-02-14T06:31:15;103579.00;;;0.88;100.00
11856;BME280;5987;53.140;8.904;2023-02-14T06:34:21;103579.88;;;0.70;100.00
11856;BME280;5987;53.140;8.904;2023-02-14T06:37:25;103577.47;;;0.55;100.00
11856;BME280;5987;53.140;8.904;2023-02-14T06:40:29;103577.47;;;0.55;100.00
11856;BME280;5987;53.140;8.904;2023-02-14T06:43:34;103586.75;;;0.51;100.00
11856;BME280;5987;53.140;8.904;2023-02-14T06:46:38;103580.31;;;0.43;100.00
11856;BME280;5987;53.140;8.904;2023-02-14T06:49:43;103579.34;;;0.41;100.00
11856;BME280;5987;53.140;8.904;2023-02-14T06:52:47;103578.13;;;0.51;100.00
11856;BME280;5987;53.140;8.904;2023-02-14T06:55:53;103579.56;;;0.46;100.00
11856;BME280;5987;53.140;8.904;2023-02-14T06:58:56;103583.88;;;0.45;100.00
11856;BME280;5987;53.140;8.904;2023-02-14T07:02:00;103580.19;;;0.58;100.00
11856;BME280;5987;53.140;8.904;2023-02-14T07:05:07;103574.34;;;0.62;100.00
11856;BME280;5987;53.140;8.904;2023-02-14T07:08:11;103578.69;;;0.81;100.00
11856;BME280;5987;53.140;8.904;2023-02-14T07:11:15;103578.09;;;0.87;100.00
11856;BME280;5987;53.140;8.904;2023-02-14T07:14:19;103578.88;;;0.84;100.00
11856;BME280;5987;53.140;8.904;2023-02-14T07:17:23;103575.75;;;0.92;100.00
11856;BME280;5987;53.140;8.904;2023-02-14T07:20:28;103580.63;;;1.03;100.00
11856;BME280;5987;53.140;8.904;2023-02-14T07:23:32;103572.41;;;1.12;100.00
11856;BME280;5987;53.140;8.904;2023-02-14T07:26:37;103579.47;;;1.16;100.00
11856;BME280;5987;53.140;8.904;2023-02-14T07:29:41;103577.28;;;1.24;100.00
11856;BME280;5987;53.140;8.904;2023-02-14T07:32:47;103576.44;;;1.25;100.00
11856;BME280;5987;53.140;8.904;2023-02-14T07:35:53;103572.22;;;1.27;100.00
11856;BME280;5987;53.140;8.904;2023-02-14T07:38:57;103568.97;;;1.31;100.00
11856;BME280;5987;53.140;8.904;2023-02-14T07:42:01;103562.50;;;1.41;100.00
11856;BME280;5987;53.140;8.904;2023-02-14T07:45:06;103566.94;;;1.44;100.00
11856;BME280;5987;53.140;8.904;2023-02-14T07:48:23;103570.47;;;1.46;100.00
11856;BME280;5987;53.140;8.904;2023-02-14T07:51:28;103565.84;;;1.58;100.00
11856;BME280;5987;53.140;8.904;2023-02-14T07:54:32;103570.28;;;1.61;100.00
11856;BME280;5987;53.140;8.904;2023-02-14T07:57:36;103568.09;;;1.70;100.00
11856;BME280;5987;53.140;8.904;2023-02-14T08:00:41;103573.44;;;1.73;100.00
11856;BME280;5987;53.140;8.904;2023-02-14T08:03:44;103564.06;;;1.77;100.00
11856;BME280;5987;53.140;8.904;2023-02-14T08:06:53;103565.91;;;1.79;100.00
11856;BME280;5987;53.140;8.904;2023-02-14T08:10:00;103566.03;;;1.82;100.00
11856;BME280;5987;53.140;8.904;2023-02-14T08:13:19;103558.00;;;1.96;100.00
11856;BME280;5987;53.140;8.904;2023-02-14T08:16:36;103564.31;;;2.02;100.00
11856;BME280;5987;53.140;8.904;2023-02-14T08:19:47;103560.78;;;2.00;100.00
11856;BME280;5987;53.140;8.904;2023-02-14T08:22:52;103559.28;;;2.05;100.00
11856;BME280;5987;53.140;8.904;2023-02-14T08:25:57;103569.91;;;2.12;100.00
11856;BME280;5987;53.140;8.904;2023-02-14T08:29:01;103570.09;;;2.16;100.00
11856;BME280;5987;53.140;8.904;2023-02-14T08:32:05;103569.72;;;2.28;100.00
11856;BME280;5987;53.140;8.904;2023-02-14T08:35:09;103579.34;;;2.31;100.00
11856;BME280;5987;53.140;8.904;2023-02-14T08:38:14;103571.75;;;2.35;100.00
11856;BME280;5987;53.140;8.904;2023-02-14T08:41:18;103568.19;;;2.33;100.00
11856;BME280;5987;53.140;8.904;2023-02-14T08:44:21;103577.25;;;2.43;100.00
11856;BME280;5987;53.140;8.904;2023-02-14T08:47:25;103578.16;;;2.65;100.00
11856;BME280;5987;53.140;8.904;2023-02-14T08:50:29;103575.44;;;2.62;100.00
11856;BME280;5987;53.140;8.904;2023-02-14T08:53:36;103572.09;;;2.66;100.00
11856;BME280;5987;53.140;8.904;2023-02-14T08:56:40;103569.66;;;2.69;100.00
11856;BME280;5987;53.140;8.904;2023-02-14T08:59:44;103572.25;;;2.69;100.00
11856;BME280;5987;53.140;8.904;2023-02-14T09:02:50;103571.25;;;2.65;100.00
11856;BME280;5987;53.140;8.904;2023-02-14T09:05:54;103572.22;;;2.90;100.00
11856;BME280;5987;53.140;8.904;2023-02-14T09:08:59;103563.91;;;2.99;100.00
11856;BME280;5987;53.140;8.904;2023-02-14T09:12:05;103563.09;;;3.22;100.00
11856;BME280;5987;53.140;8.904;2023-02-14T09:15:13;103560.66;;;3.27;100.00
11856;BME280;5987;53.140;8.904;2023-02-14T09:18:17;103555.16;;;3.42;100.00
11856;BME280;5987;53.140;8.904;2023-02-14T09:21:25;103552.78;;;3.48;100.00
11856;BME280;5987;53.140;8.904;2023-02-14T09:24:32;103554.97;;;3.37;100.00
11856;BME280;5987;53.140;8.904;2023-02-14T09:27:36;103546.88;;;3.52;100.00
11856;BME280;5987;53.140;8.904;2023-02-14T09:30:40;103549.81;;;3.39;100.00
11856;BME280;5987;53.140;8.904;2023-02-14T09:33:45;103552.84;;;3.50;100.00
11856;BME280;5987;53.140;8.904;2023-02-14T09:37:08;103551.28;;;3.79;100.00
11856;BME280;5987;53.140;8.904;2023-02-14T09:40:32;103537.13;;;3.71;100.00
11856;BME280;5987;53.140;8.904;2023-02-14T09:43:46;103537.75;;;3.64;100.00
11856;BME280;5987;53.140;8.904;2023-02-14T09:47:04;103541.22;;;3.88;100.00
11856;BME280;5987;53.140;8.904;2023-02-14T09:50:18;103535.75;;;4.06;100.00
11856;BME280;5987;53.140;8.904;2023-02-14T09:53:27;103530.78;;;4.12;100.00
11856;BME280;5987;53.140;8.904;2023-02-14T09:56:44;103534.63;;;4.24;100.00
11856;BME280;5987;53.140;8.904;2023-02-14T10:00:06;103526.00;;;4.25;100.00
11856;BME280;5987;53.140;8.904;2023-02-14T10:03:41;103531.47;;;4.34;100.00
11856;BME280;5987;53.140;8.904;2023-02-14T10:06:56;103523.66;;;4.60;100.00
11856;BME280;5987;53.140;8.904;2023-02-14T10:10:13;103529.59;;;4.56;100.00
11856;BME280;5987;53.140;8.904;2023-02-14T10:13:26;103535.13;;;4.67;100.00
11856;BME280;5987;53.140;8.904;2023-02-14T10:16:38;103532.47;;;4.65;100.00
11856;BME280;5987;53.140;8.904;2023-02-14T10:19:45;103534.81;;;4.85;100.00
11856;BME280;5987;53.140;8.904;2023-02-14T10:23:02;103534.19;;;4.93;100.00
11856;BME280;5987;53.140;8.904;2023-02-14T10:26:10;103521.47;;;5.03;100.00
11856;BME280;5987;53.140;8.904;2023-02-14T10:29:18;103526.09;;;5.13;100.00
11856;BME280;5987;53.140;8.904;2023-02-14T10:32:29;103521.25;;;5.25;100.00
11856;BME280;5987;53.140;8.904;2023-02-14T10:35:43;103521.91;;;5.18;100.00
11856;BME280;5987;53.140;8.904;2023-02-14T10:39:02;103518.69;;;5.27;100.00
11856;BME280;5987;53.140;8.904;2023-02-14T10:42:22;103513.88;;;5.41;100.00
11856;BME280;5987;53.140;8.904;2023-02-14T10:45:36;103508.19;;;5.54;100.00
11856;BME280;5987;53.140;8.904;2023-02-14T10:48:54;103514.56;;;5.65;100.00
11856;BME280;5987;53.140;8.904;2023-02-14T10:52:12;103511.03;;;5.63;100.00
11856;BME280;5987;53.140;8.904;2023-02-14T10:55:37;103504.00;;;5.61;100.00
11856;BME280;5987;53.140;8.904;2023-02-14T10:58:43;103506.13;;;5.76;100.00
11856;BME280;5987;53.140;8.904;2023-02-14T11:01:52;103509.13;;;5.90;100.00
11856;BME280;5987;53.140;8.904;2023-02-14T11:04:58;103501.69;;;5.72;100.00
11856;BME280;5987;53.140;8.904;2023-02-14T11:08:20;103497.63;;;5.83;100.00
11856;BME280;5987;53.140;8.904;2023-02-14T11:11:32;103494.88;;;6.10;100.00
11856;BME280;5987;53.140;8.904;2023-02-14T11:14:39;103493.38;;;6.20;100.00
11856;BME280;5987;53.140;8.904;2023-02-14T11:17:45;103487.31;;;6.21;100.00
11856;BME280;5987;53.140;8.904;2023-02-14T11:21:04;103489.28;;;6.31;100.00
11856;BME280;5987;53.140;8.904;2023-02-14T11:24:21;103483.38;;;6.37;100.00
11856;BME280;5987;53.140;8.904;2023-02-14T11:27:27;103478.38;;;6.48;100.00
11856;BME280;5987;53.140;8.904;2023-02-14T11:30:37;103479.31;;;6.50;100.00
11856;BME280;5987;53.140;8.904;2023-02-14T11:33:43;103468.13;;;6.56;100.00
11856;BME280;5987;53.140;8.904;2023-02-14T11:36:52;103465.94;;;6.76;100.00
11856;BME280;5987;53.140;8.904;2023-02-14T11:39:59;103458.38;;;6.88;100.00
11856;BME280;5987;53.140;8.904;2023-02-14T11:43:19;103451.19;;;6.78;100.00
11856;BME280;5987;53.140;8.904;2023-02-14T11:46:26;103445.06;;;6.76;100.00
11856;BME280;5987;53.140;8.904;2023-02-14T11:49:35;103442.91;;;6.99;100.00
11856;BME280;5987;53.140;8.904;2023-02-14T11:52:50;103435.03;;;6.97;100.00
11856;BME280;5987;53.140;8.904;2023-02-14T11:55:58;103430.97;;;7.10;100.00
11856;BME280;5987;53.140;8.904;2023-02-14T11:59:04;103428.09;;;6.96;100.00
11856;BME280;5987;53.140;8.904;2023-02-14T12:02:24;103427.41;;;7.07;100.00
11856;BME280;5987;53.140;8.904;2023-02-14T12:05:35;103418.16;;;7.24;100.00
11856;BME280;5987;53.140;8.904;2023-02-14T12:08:46;103416.31;;;7.20;100.00
11856;BME280;5987;53.140;8.904;2023-02-14T12:11:54;103411.44;;;7.37;100.00
11856;BME280;5987;53.140;8.904;2023-02-14T12:15:31;103409.78;;;7.44;100.00
11856;BME280;5987;53.140;8.904;2023-02-14T12:18:52;103399.25;;;7.37;100.00
11856;BME280;5987;53.140;8.904;2023-02-14T12:22:03;103401.97;;;7.45;100.00
11856;BME280;5987;53.140;8.904;2023-02-14T12:25:15;103401.69;;;7.79;100.00
11856;BME280;5987;53.140;8.904;2023-02-14T12:28:27;103405.28;;;7.85;100.00
11856;BME280;5987;53.140;8.904;2023-02-14T12:31:32;103394.63;;;7.73;100.00
11856;BME280;5987;53.140;8.904;2023-02-14T12:34:36;103396.41;;;7.76;100.00
11856;BME280;5987;53.140;8.904;2023-02-14T12:37:54;103388.69;;;7.83;100.00
11856;BME280;5987;53.140;8.904;2023-02-14T12:41:25;103387.78;;;7.83;100.00
11856;BME280;5987;53.140;8.904;2023-02-14T12:44:42;103386.28;;;7.99;100.00
11856;BME280;5987;53.140;8.904;2023-02-14T12:48:00;103372.25;;;7.92;100.00
11856;BME280;5987;53.140;8.904;2023-02-14T12:51:18;103374.28;;;8.10;100.00
11856;BME280;5987;53.140;8.904;2023-02-14T12:54:45;103359.72;;;8.32;100.00
11856;BME280;5987;53.140;8.904;2023-02-14T12:57:58;103353.50;;;8.24;100.00
11856;BME280;5987;53.140;8.904;2023-02-14T13:01:32;103353.66;;;8.33;100.00
11856;BME280;5987;53.140;8.904;2023-02-14T13:04:57;103350.38;;;8.47;100.00
11856;BME280;5987;53.140;8.904;2023-02-14T13:08:20;103339.91;;;8.47;100.00
11856;BME280;5987;53.140;8.904;2023-02-14T13:11:40;103339.78;;;8.42;100.00
11856;BME280;5987;53.140;8.904;2023-02-14T13:15:00;103337.41;;;8.61;100.00
11856;BME280;5987;53.140;8.904;2023-02-14T13:18:16;103329.63;;;8.64;100.00
11856;BME280;5987;53.140;8.904;2023-02-14T13:21:26;103329.56;;;8.59;100.00
11856;BME280;5987;53.140;8.904;2023-02-14T13:24:40;103327.03;;;8.67;100.00
11856;BME280;5987;53.140;8.904;2023-02-14T13:27:47;103320.06;;;8.69;100.00
11856;BME280;5987;53.140;8.904;2023-02-14T13:30:52;103309.50;;;8.60;100.00
11856;BME280;5987;53.140;8.904;2023-02-14T13:34:02;103301.75;;;8.70;100.00
11856;BME280;5987;53.140;8.904;2023-02-14T13:37:13;103301.81;;;8.73;100.00
11856;BME280;5987;53.140;8.904;2023-02-14T13:40:22;103297.56;;;8.85;100.00
11856;BME280;5987;53.140;8.904;2023-02-14T13:44:02;103293.03;;;8.71;100.00
11856;BME280;5987;53.140;8.904;2023-02-14T13:47:15;103294.78;;;8.72;100.00
11856;BME280;5987;53.140;8.904;2023-02-14T13:50:20;103289.56;;;8.72;100.00
11856;BME280;5987;53.140;8.904;2023-02-14T13:53:48;103288.81;;;8.87;100.00
11856;BME280;5987;53.140;8.904;2023-02-14T13:56:54;103279.16;;;8.82;100.00
11856;BME280;5987;53.140;8.904;2023-02-14T14:00:34;103273.97;;;8.85;100.00
11856;BME280;5987;53.140;8.904;2023-02-14T14:03:57;103283.53;;;8.83;100.00
11856;BME280;5987;53.140;8.904;2023-02-14T14:07:31;103270.41;;;8.77;100.00
11856;BME280;5987;53.140;8.904;2023-02-14T14:10:45;103272.16;;;8.78;100.00
11856;BME280;5987;53.140;8.904;2023-02-14T14:13:58;103260.09;;;8.98;100.00
11856;BME280;5987;53.140;8.904;2023-02-14T14:17:23;103266.94;;;8.81;100.00
11856;BME280;5987;53.140;8.904;2023-02-14T14:20:40;103263.50;;;8.85;100.00
11856;BME280;5987;53.140;8.904;2023-02-14T14:23:44;103264.31;;;8.81;100.00
11856;BME280;5987;53.140;8.904;2023-02-14T14:27:14;103266.19;;;8.94;100.00
11856;BME280;5987;53.140;8.904;2023-02-14T14:30:29;103258.31;;;8.94;100.00
11856;BME280;5987;53.140;8.904;2023-02-14T14:33:35;103256.50;;;8.87;100.00
11856;BME280;5987;53.140;8.904;2023-02-14T14:36:40;103250.41;;;8.88;100.00
11856;BME280;5987;53.140;8.904;2023-02-14T14:39:50;103244.41;;;9.03;100.00
11856;BME280;5987;53.140;8.904;2023-02-14T14:42:59;103244.47;;;9.04;100.00
11856;BME280;5987;53.140;8.904;2023-02-14T14:46:09;103248.75;;;8.96;100.00
11856;BME280;5987;53.140;8.904;2023-02-14T14:49:16;103242.66;;;9.00;100.00
11856;BME280;5987;53.140;8.904;2023-02-14T14:52:32;103243.50;;;8.96;100.00
11856;BME280;5987;53.140;8.904;2023-02-14T14:55:39;103244.34;;;8.92;100.00
11856;BME280;5987;53.140;8.904;2023-02-14T14:58:47;103237.34;;;8.94;100.00
11856;BME280;5987;53.140;8.904;2023-02-14T15:01:51;103242.59;;;8.94;100.00
11856;BME280;5987;53.140;8.904;2023-02-14T15:05:13;103240.00;;;8.96;100.00
11856;BME280;5987;53.140;8.904;2023-02-14T15:08:27;103232.94;;;8.87;100.00
11856;BME280;5987;53.140;8.904;2023-02-14T15:11:34;103234.69;;;8.86;100.00
11856;BME280;5987;53.140;8.904;2023-02-14T15:14:57;103233.78;;;8.86;100.00
11856;BME280;5987;53.140;8.904;2023-02-14T15:18:04;103215.44;;;8.83;100.00
11856;BME280;5987;53.140;8.904;2023-02-14T15:21:10;103227.63;;;8.79;100.00
11856;BME280;5987;53.140;8.904;2023-02-14T15:24:18;103222.44;;;8.84;100.00
11856;BME280;5987;53.140;8.904;2023-02-14T15:27:24;103220.66;;;8.80;100.00
11856;BME280;5987;53.140;8.904;2023-02-14T15:30:31;103215.41;;;8.78;100.00
11856;BME280;5987;53.140;8.904;2023-02-14T15:33:39;103211.84;;;8.71;100.00
11856;BME280;5987;53.140;8.904;2023-02-14T15:36:45;103211.66;;;8.54;100.00
11856;BME280;5987;53.140;8.904;2023-02-14T15:39:55;103209.97;;;8.58;100.00
11856;BME280;5987;53.140;8.904;2023-02-14T15:43:14;103202.13;;;8.60;100.00
11856;BME280;5987;53.140;8.904;2023-02-14T15:46:31;103193.16;;;8.40;100.00
11856;BME280;5987;53.140;8.904;2023-02-14T15:49:38;103188.72;;;8.32;100.00
11856;BME280;5987;53.140;8.904;2023-02-14T15:52:47;103196.56;;;8.30;100.00
11856;BME280;5987;53.140;8.904;2023-02-14T15:55:51;103192.19;;;8.29;100.00
11856;BME280;5987;53.140;8.904;2023-02-14T15:59:02;103192.22;;;8.34;100.00
11856;BME280;5987;53.140;8.904;2023-02-14T16:02:26;103190.34;;;8.19;100.00
11856;BME280;5987;53.140;8.904;2023-02-14T16:05:31;103191.94;;;8.07;100.00
11856;BME280;5987;53.140;8.904;2023-02-14T16:08:38;103189.19;;;7.95;100.00
11856;BME280;5987;53.140;8.904;2023-02-14T16:11:43;103185.66;;;7.93;100.00
11856;BME280;5987;53.140;8.904;2023-02-14T16:15:04;103189.13;;;7.89;100.00
11856;BME280;5987;53.140;8.904;2023-02-14T16:18:36;103183.72;;;7.77;100.00
11856;BME280;5987;53.140;8.904;2023-02-14T16:21:54;103190.56;;;7.65;100.00
11856;BME280;5987;53.140;8.904;2023-02-14T16:25:00;103182.59;;;7.58;100.00
11856;BME280;5987;53.140;8.904;2023-02-14T16:28:04;103179.75;;;7.41;100.00
11856;BME280;5987;53.140;8.904;2023-02-14T16:31:12;103187.28;;;7.20;100.00
11856;BME280;5987;53.140;8.904;2023-02-14T16:34:18;103186.13;;;7.03;100.00
11856;BME280;5987;53.140;8.904;2023-02-14T16:37:24;103183.28;;;6.87;100.00
11856;BME280;5987;53.140;8.904;2023-02-14T16:40:32;103183.06;;;6.74;100.00
11856;BME280;5987;53.140;8.904;2023-02-14T16:43:36;103191.53;;;6.62;100.00
11856;BME280;5987;53.140;8.904;2023-02-14T16:46:40;103199.38;;;6.62;100.00
11856;BME280;5987;53.140;8.904;2023-02-14T16:49:44;103203.22;;;6.35;100.00
11856;BME280;5987;53.140;8.904;2023-02-14T16:52:50;103199.47;;;6.19;100.00